CPA198 NZAA-VHHH
Flight info
| Callsign | CPA198 |
|---|---|
| Flight time | N/A |
| Altitude | 38000 |
| Route | DUGAN R599 SADIM DCT 20S167E 15S163E/N0486F400 DCT ENOUS DCT 12S160E 0712S15512E 07S155E 03S150E DCT PIKOK DCT 01N145E 05N140E DCT ROR R337 ALICO/N0481F430 R337 TAC B462 MIA W16 AVMUP A461 NOMAN V532 BETTY |
| Aircraft | A359/H-SDE2E3GHIJ3J4J5LM1ORWXY/LB1D1 |
Departure
| Time | 2026-05-04 19:33 |
|---|---|
| Airport | Auckland International Airport (NZAA) |
Arrival
| Time | N/A |
|---|---|
| Airport | Hong Kong International Airport (VHHH) |
| Time | Latitude | Longitude | Altitude | Speed | Heading |
|---|---|---|---|---|---|
| 2026-05-04 19:27 | -37.01130 | 174.78197 | 32 ft | 15 kts | 71° |
| 2026-05-04 19:27 | -37.01095 | 174.78320 | 32 ft | 15 kts | 71° |
| 2026-05-04 19:28 | -37.01060 | 174.78449 | 32 ft | 16 kts | 71° |
| 2026-05-04 19:28 | -37.01020 | 174.78598 | 31 ft | 20 kts | 71° |
| 2026-05-04 19:28 | -37.00975 | 174.78767 | 31 ft | 22 kts | 71° |
| 2026-05-04 19:28 | -37.00913 | 174.78978 | 31 ft | 27 kts | 70° |
| 2026-05-04 19:29 | -37.00854 | 174.79197 | 31 ft | 26 kts | 71° |
| 2026-05-04 19:29 | -37.00796 | 174.79409 | 31 ft | 25 kts | 71° |
| 2026-05-04 19:29 | -37.00738 | 174.79616 | 31 ft | 25 kts | 71° |
| 2026-05-04 19:29 | -37.00683 | 174.79816 | 31 ft | 24 kts | 71° |
| 2026-05-04 19:30 | -37.00629 | 174.80012 | 31 ft | 23 kts | 71° |
| 2026-05-04 19:30 | -37.00577 | 174.80200 | 31 ft | 23 kts | 71° |
| 2026-05-04 19:30 | -37.00540 | 174.80382 | 31 ft | 20 kts | 101° |
| 2026-05-04 19:30 | -37.00583 | 174.80473 | 30 ft | 0 kts | 130° |
| 2026-05-04 19:31 | -37.00607 | 174.80507 | 31 ft | 14 kts | 134° |
| 2026-05-04 19:31 | -37.00683 | 174.80494 | 31 ft | 11 kts | 230° |
| 2026-05-04 19:32 | -37.00699 | 174.80454 | 31 ft | 0 kts | 249° |
| 2026-05-04 19:32 | -37.00699 | 174.80453 | 31 ft | 0 kts | 249° |
| 2026-05-04 19:32 | -37.00769 | 174.80203 | 31 ft | 66 kts | 251° |
| 2026-05-04 19:32 | -37.00998 | 174.79368 | 32 ft | 135 kts | 251° |
| 2026-05-04 19:33 | -37.01359 | 174.78051 | 44 ft | 191 kts | 250° |
| 2026-05-04 19:33 | -37.01745 | 174.76729 | 738 ft | 185 kts | 248° |
| 2026-05-04 19:33 | -37.02211 | 174.75232 | 1574 ft | 188 kts | 249° |
| 2026-05-04 19:33 | -37.02672 | 174.73623 | 2057 ft | 212 kts | 251° |
| 2026-05-04 19:34 | -37.03213 | 174.71693 | 2290 ft | 253 kts | 251° |
| 2026-05-04 19:34 | -37.03839 | 174.69443 | 2190 ft | 290 kts | 251° |
| 2026-05-04 19:34 | -37.04496 | 174.67093 | 2085 ft | 278 kts | 251° |
| 2026-05-04 19:34 | -37.05089 | 174.64895 | 2395 ft | 264 kts | 255° |
| 2026-05-04 19:35 | -37.05306 | 174.62555 | 2550 ft | 274 kts | 277° |
| 2026-05-04 19:35 | -37.04713 | 174.60275 | 2897 ft | 278 kts | 307° |
| 2026-05-04 19:35 | -37.03314 | 174.58704 | 3479 ft | 272 kts | 333° |
| 2026-05-04 19:35 | -37.01605 | 174.57688 | 4079 ft | 272 kts | 341° |
| 2026-05-04 19:36 | -36.99798 | 174.56926 | 4641 ft | 274 kts | 345° |
| 2026-05-04 19:36 | -36.97951 | 174.56274 | 5272 ft | 275 kts | 346° |
| 2026-05-04 19:36 | -36.96117 | 174.55657 | 5857 ft | 277 kts | 346° |
| 2026-05-04 19:36 | -36.94243 | 174.55008 | 6442 ft | 280 kts | 345° |
| 2026-05-04 19:37 | -36.92412 | 174.54343 | 7035 ft | 282 kts | 345° |
| 2026-05-04 19:37 | -36.90531 | 174.53631 | 7631 ft | 285 kts | 345° |
| 2026-05-04 19:37 | -36.88619 | 174.52888 | 8181 ft | 289 kts | 344° |
| 2026-05-04 19:37 | -36.86684 | 174.52125 | 8749 ft | 292 kts | 344° |
| 2026-05-04 19:38 | -36.84748 | 174.51359 | 9296 ft | 296 kts | 344° |
| 2026-05-04 19:38 | -36.82786 | 174.50584 | 9875 ft | 300 kts | 344° |
| 2026-05-04 19:38 | -36.80794 | 174.49797 | 10422 ft | 304 kts | 344° |
| 2026-05-04 19:38 | -36.78761 | 174.48996 | 10939 ft | 307 kts | 344° |
| 2026-05-04 19:39 | -36.76717 | 174.48193 | 11478 ft | 309 kts | 344° |
| 2026-05-04 19:39 | -36.74643 | 174.47379 | 12032 ft | 312 kts | 344° |
| 2026-05-04 19:39 | -36.72565 | 174.46563 | 12585 ft | 314 kts | 344° |
| 2026-05-04 19:39 | -36.70480 | 174.45745 | 13124 ft | 317 kts | 344° |
| 2026-05-04 19:40 | -36.68371 | 174.44918 | 13665 ft | 319 kts | 344° |
| 2026-05-04 19:40 | -36.66238 | 174.44082 | 14195 ft | 322 kts | 344° |
| 2026-05-04 19:40 | -36.64096 | 174.43244 | 14686 ft | 324 kts | 344° |
| 2026-05-04 19:40 | -36.61967 | 174.42411 | 15145 ft | 326 kts | 344° |
| 2026-05-04 19:41 | -36.59788 | 174.41560 | 15586 ft | 329 kts | 344° |
| 2026-05-04 19:41 | -36.57591 | 174.40702 | 16027 ft | 331 kts | 344° |
| 2026-05-04 19:41 | -36.55389 | 174.39842 | 16524 ft | 332 kts | 344° |
| 2026-05-04 19:41 | -36.53229 | 174.38999 | 17008 ft | 333 kts | 344° |
| 2026-05-04 19:42 | -36.50982 | 174.38122 | 17493 ft | 334 kts | 344° |
| 2026-05-04 19:42 | -36.48754 | 174.37253 | 17982 ft | 335 kts | 344° |
| 2026-05-04 19:42 | -36.46521 | 174.36383 | 18472 ft | 336 kts | 344° |
| 2026-05-04 19:42 | -36.44279 | 174.35510 | 18941 ft | 338 kts | 344° |
| 2026-05-04 19:43 | -36.42049 | 174.34643 | 19343 ft | 340 kts | 344° |
| 2026-05-04 19:43 | -36.39774 | 174.33758 | 19726 ft | 343 kts | 344° |
| 2026-05-04 19:43 | -36.37487 | 174.32869 | 20110 ft | 345 kts | 343° |
| 2026-05-04 19:43 | -36.35177 | 174.31972 | 20494 ft | 348 kts | 344° |
| 2026-05-04 19:44 | -36.32882 | 174.31081 | 20852 ft | 351 kts | 343° |
| 2026-05-04 19:44 | -36.30534 | 174.30171 | 21243 ft | 353 kts | 343° |
| 2026-05-04 19:44 | -36.28176 | 174.29257 | 21635 ft | 356 kts | 343° |
| 2026-05-04 19:44 | -36.25811 | 174.28340 | 22025 ft | 358 kts | 343° |
| 2026-05-04 19:45 | -36.23426 | 174.27416 | 22423 ft | 360 kts | 343° |
| 2026-05-04 19:45 | -36.21010 | 174.26481 | 22768 ft | 362 kts | 343° |
| 2026-05-04 19:45 | -36.18622 | 174.25558 | 23124 ft | 365 kts | 343° |
| 2026-05-04 19:45 | -36.16181 | 174.24615 | 23491 ft | 367 kts | 343° |
| 2026-05-04 19:46 | -36.13729 | 174.23668 | 23847 ft | 370 kts | 343° |
| 2026-05-04 19:46 | -36.11267 | 174.22718 | 24172 ft | 372 kts | 343° |
| 2026-05-04 19:46 | -36.08769 | 174.21754 | 24465 ft | 375 kts | 342° |
| 2026-05-04 19:46 | -36.06311 | 174.20807 | 24775 ft | 376 kts | 342° |
| 2026-05-04 19:47 | -36.03922 | 174.19887 | 25103 ft | 376 kts | 342° |
| 2026-05-04 19:47 | -36.01420 | 174.18925 | 25438 ft | 377 kts | 342° |
| 2026-05-04 19:47 | -35.98910 | 174.17960 | 25760 ft | 378 kts | 342° |
| 2026-05-04 19:47 | -35.96393 | 174.16992 | 26076 ft | 379 kts | 342° |
| 2026-05-04 19:48 | -35.93890 | 174.16031 | 26373 ft | 380 kts | 342° |
| 2026-05-04 19:48 | -35.91356 | 174.15058 | 26692 ft | 381 kts | 342° |
| 2026-05-04 19:48 | -35.88825 | 174.14087 | 27001 ft | 382 kts | 343° |
| 2026-05-04 19:48 | -35.86281 | 174.13112 | 27299 ft | 383 kts | 342° |
| 2026-05-04 19:49 | -35.83750 | 174.12142 | 27602 ft | 384 kts | 342° |
| 2026-05-04 19:49 | -35.81184 | 174.11160 | 27880 ft | 385 kts | 342° |
| 2026-05-04 19:49 | -35.78615 | 174.10177 | 28118 ft | 387 kts | 343° |
| 2026-05-04 19:49 | -35.76059 | 174.09200 | 28361 ft | 390 kts | 343° |
| 2026-05-04 19:50 | -35.73460 | 174.08207 | 28596 ft | 392 kts | 343° |
| 2026-05-04 19:50 | -35.70841 | 174.07207 | 28833 ft | 394 kts | 343° |
| 2026-05-04 19:50 | -35.68210 | 174.06204 | 29064 ft | 396 kts | 343° |
| 2026-05-04 19:51 | -35.67373 | 174.05884 | 29143 ft | 396 kts | 343° |
| 2026-05-04 19:51 | -35.64913 | 174.04947 | 29403 ft | 398 kts | 343° |
| 2026-05-04 19:51 | -35.62252 | 174.03932 | 29663 ft | 399 kts | 343° |
| 2026-05-04 19:52 | -35.59767 | 174.02986 | 29863 ft | 401 kts | 343° |
| 2026-05-04 19:52 | -35.57518 | 174.02130 | 29980 ft | 404 kts | 343° |
| 2026-05-04 19:52 | -35.54893 | 174.01131 | 30184 ft | 406 kts | 343° |
| 2026-05-04 19:52 | -35.52232 | 174.00120 | 30410 ft | 408 kts | 343° |
| 2026-05-04 19:53 | -35.49507 | 173.99085 | 30599 ft | 410 kts | 343° |
| 2026-05-04 19:53 | -35.46782 | 173.98051 | 30749 ft | 412 kts | 343° |
| 2026-05-04 19:53 | -35.44163 | 173.97058 | 30893 ft | 415 kts | 342° |
| 2026-05-04 19:53 | -35.41648 | 173.96105 | 31035 ft | 417 kts | 342° |
| 2026-05-04 19:54 | -35.38876 | 173.95055 | 31175 ft | 419 kts | 342° |
| 2026-05-04 19:54 | -35.36068 | 173.93992 | 31318 ft | 422 kts | 342° |
| 2026-05-04 19:54 | -35.33257 | 173.92929 | 31448 ft | 424 kts | 342° |
| 2026-05-04 19:54 | -35.30412 | 173.91854 | 31554 ft | 428 kts | 342° |
| 2026-05-04 19:55 | -35.27587 | 173.90788 | 31707 ft | 429 kts | 342° |
| 2026-05-04 19:55 | -35.24731 | 173.89712 | 31898 ft | 430 kts | 341° |
| 2026-05-04 19:55 | -35.21857 | 173.88629 | 32025 ft | 432 kts | 341° |
| 2026-05-04 19:55 | -35.18972 | 173.87541 | 32140 ft | 435 kts | 341° |
| 2026-05-04 19:56 | -35.16095 | 173.86458 | 32266 ft | 437 kts | 341° |
| 2026-05-04 19:56 | -35.13168 | 173.85357 | 32393 ft | 439 kts | 341° |
| 2026-05-04 19:56 | -35.10231 | 173.84253 | 32522 ft | 441 kts | 341° |
| 2026-05-04 19:56 | -35.07308 | 173.83155 | 32632 ft | 443 kts | 341° |
| 2026-05-04 19:57 | -35.04351 | 173.82045 | 32742 ft | 446 kts | 341° |
| 2026-05-04 19:57 | -35.01368 | 173.80927 | 32886 ft | 447 kts | 341° |
| 2026-05-04 19:57 | -34.98386 | 173.79810 | 33042 ft | 449 kts | 341° |
| 2026-05-04 19:57 | -34.95415 | 173.78698 | 33190 ft | 450 kts | 341° |
| 2026-05-04 19:58 | -34.92423 | 173.77579 | 33338 ft | 451 kts | 341° |
| 2026-05-04 19:58 | -34.89407 | 173.76451 | 33450 ft | 453 kts | 341° |
| 2026-05-04 19:58 | -34.86381 | 173.75321 | 33455 ft | 453 kts | 341° |
| 2026-05-04 19:59 | -34.80397 | 173.73089 | 33453 ft | 452 kts | 341° |
| 2026-05-04 19:59 | -34.74362 | 173.70841 | 33452 ft | 452 kts | 341° |
| 2026-05-04 20:00 | -34.68337 | 173.68600 | 33453 ft | 452 kts | 341° |
| 2026-05-04 20:00 | -34.62346 | 173.66374 | 33451 ft | 452 kts | 341° |
| 2026-05-04 20:01 | -34.56331 | 173.64144 | 33438 ft | 452 kts | 341° |
| 2026-05-04 20:01 | -34.50314 | 173.61916 | 33448 ft | 452 kts | 341° |
| 2026-05-04 20:02 | -34.44275 | 173.59683 | 33443 ft | 452 kts | 341° |
| 2026-05-04 20:02 | -34.38276 | 173.57468 | 33440 ft | 452 kts | 341° |
| 2026-05-04 20:03 | -34.32273 | 173.55256 | 33437 ft | 452 kts | 341° |
| 2026-05-04 20:03 | -34.26239 | 173.53035 | 33440 ft | 453 kts | 341° |
| 2026-05-04 20:04 | -34.20180 | 173.50808 | 33434 ft | 456 kts | 341° |
| 2026-05-04 20:04 | -34.14117 | 173.48583 | 33432 ft | 457 kts | 341° |
| 2026-05-04 20:05 | -34.08021 | 173.46350 | 33433 ft | 457 kts | 341° |
| 2026-05-04 20:05 | -34.01966 | 173.44135 | 33423 ft | 457 kts | 341° |
| 2026-05-04 20:06 | -33.95859 | 173.41904 | 33428 ft | 458 kts | 341° |
| 2026-05-04 20:06 | -33.89784 | 173.39688 | 33428 ft | 458 kts | 341° |
| 2026-05-04 20:07 | -33.83674 | 173.37454 | 33425 ft | 458 kts | 341° |
| 2026-05-04 20:07 | -33.77614 | 173.35194 | 33419 ft | 458 kts | 340° |
| 2026-05-04 20:08 | -33.71504 | 173.32914 | 33416 ft | 459 kts | 340° |
| 2026-05-04 20:08 | -33.65428 | 173.30659 | 33415 ft | 459 kts | 340° |
| 2026-05-04 20:09 | -33.59319 | 173.28399 | 33408 ft | 459 kts | 340° |
| 2026-05-04 20:09 | -33.54226 | 173.26518 | 33415 ft | 459 kts | 340° |
| 2026-05-04 20:10 | -33.48133 | 173.24271 | 33404 ft | 459 kts | 340° |
| 2026-05-04 20:10 | -33.41994 | 173.22010 | 33411 ft | 460 kts | 340° |
| 2026-05-04 20:11 | -33.35905 | 173.19770 | 33412 ft | 460 kts | 340° |
| 2026-05-04 20:11 | -33.29757 | 173.17513 | 33404 ft | 460 kts | 340° |
| 2026-05-04 20:12 | -33.23623 | 173.15263 | 33398 ft | 460 kts | 340° |
| 2026-05-04 20:12 | -33.17515 | 173.13027 | 33400 ft | 463 kts | 340° |
| 2026-05-04 20:13 | -33.11336 | 173.10767 | 33400 ft | 463 kts | 340° |
| 2026-05-04 20:13 | -33.05203 | 173.08528 | 33395 ft | 463 kts | 340° |
| 2026-05-04 20:14 | -32.99023 | 173.06275 | 33397 ft | 463 kts | 340° |
| 2026-05-04 20:14 | -32.92847 | 173.04027 | 33388 ft | 464 kts | 340° |
| 2026-05-04 20:15 | -32.86710 | 173.01796 | 33389 ft | 464 kts | 340° |
| 2026-05-04 20:15 | -32.80519 | 172.99549 | 33393 ft | 464 kts | 340° |
| 2026-05-04 20:16 | -32.74342 | 172.97310 | 33384 ft | 464 kts | 340° |
| 2026-05-04 20:16 | -32.68178 | 172.95079 | 33368 ft | 464 kts | 340° |
| 2026-05-04 20:17 | -32.61977 | 172.92838 | 33372 ft | 465 kts | 340° |
| 2026-05-04 20:17 | -32.55763 | 172.90595 | 33383 ft | 466 kts | 340° |
| 2026-05-04 20:18 | -32.49578 | 172.88367 | 33374 ft | 466 kts | 340° |
| 2026-05-04 20:18 | -32.43408 | 172.86147 | 33373 ft | 466 kts | 340° |
| 2026-05-04 20:19 | -32.37179 | 172.83909 | 33371 ft | 466 kts | 340° |
| 2026-05-04 20:19 | -32.30994 | 172.81689 | 33371 ft | 466 kts | 340° |
| 2026-05-04 20:20 | -32.24774 | 172.79461 | 33367 ft | 466 kts | 340° |
| 2026-05-04 20:20 | -32.18567 | 172.77240 | 33362 ft | 466 kts | 340° |
| 2026-05-04 20:21 | -32.12348 | 172.75018 | 33354 ft | 466 kts | 340° |
| 2026-05-04 20:21 | -32.03025 | 172.71693 | 33360 ft | 467 kts | 340° |
| 2026-05-04 20:22 | -31.96774 | 172.69468 | 33355 ft | 468 kts | 340° |
| 2026-05-04 20:22 | -31.90580 | 172.67266 | 33355 ft | 468 kts | 340° |
| 2026-05-04 20:23 | -31.84330 | 172.65047 | 33345 ft | 468 kts | 340° |
| 2026-05-04 20:23 | -31.78115 | 172.62844 | 33349 ft | 468 kts | 340° |
| 2026-05-04 20:24 | -31.71903 | 172.60645 | 33344 ft | 468 kts | 340° |
| 2026-05-04 20:24 | -31.65652 | 172.58436 | 33344 ft | 468 kts | 340° |
| 2026-05-04 20:25 | -31.59432 | 172.56240 | 33344 ft | 468 kts | 340° |
| 2026-05-04 20:25 | -31.53187 | 172.54039 | 33344 ft | 468 kts | 340° |
| 2026-05-04 20:26 | -31.46964 | 172.51848 | 33341 ft | 468 kts | 340° |
| 2026-05-04 20:26 | -31.40717 | 172.49652 | 33338 ft | 468 kts | 340° |
| 2026-05-04 20:27 | -31.34502 | 172.47470 | 33338 ft | 468 kts | 340° |
| 2026-05-04 20:27 | -31.28258 | 172.45282 | 33330 ft | 468 kts | 340° |
| 2026-05-04 20:28 | -31.22019 | 172.43098 | 33336 ft | 468 kts | 340° |
| 2026-05-04 20:28 | -31.15813 | 172.40928 | 33331 ft | 468 kts | 340° |
| 2026-05-04 20:29 | -31.09551 | 172.38742 | 33330 ft | 469 kts | 340° |
| 2026-05-04 20:29 | -31.03319 | 172.36569 | 33328 ft | 469 kts | 340° |
| 2026-05-04 20:30 | -30.97035 | 172.34381 | 33327 ft | 470 kts | 340° |
| 2026-05-04 20:30 | -30.90742 | 172.32193 | 33325 ft | 471 kts | 340° |
| 2026-05-04 20:31 | -30.84492 | 172.30023 | 33319 ft | 471 kts | 340° |
| 2026-05-04 20:31 | -30.78198 | 172.27841 | 33319 ft | 471 kts | 340° |
| 2026-05-04 20:32 | -30.71911 | 172.25665 | 33301 ft | 471 kts | 340° |
| 2026-05-04 20:32 | -30.65664 | 172.23504 | 33311 ft | 472 kts | 340° |
| 2026-05-04 20:33 | -30.59370 | 172.21330 | 33311 ft | 472 kts | 340° |
| 2026-05-04 20:33 | -30.53083 | 172.19163 | 33312 ft | 472 kts | 340° |
| 2026-05-04 20:34 | -30.46764 | 172.16987 | 33309 ft | 472 kts | 340° |
| 2026-05-04 20:34 | -30.40496 | 172.14831 | 33308 ft | 472 kts | 340° |
| 2026-05-04 20:35 | -30.34198 | 172.12668 | 33305 ft | 472 kts | 340° |
| 2026-05-04 20:35 | -30.27879 | 172.10501 | 33301 ft | 472 kts | 340° |
| 2026-05-04 20:36 | -30.21618 | 172.08356 | 33299 ft | 472 kts | 340° |
| 2026-05-04 20:36 | -30.15304 | 172.06196 | 33283 ft | 472 kts | 340° |
| 2026-05-04 20:37 | -30.08986 | 172.04037 | 33297 ft | 473 kts | 340° |
| 2026-05-04 20:37 | -30.02683 | 172.01888 | 33289 ft | 475 kts | 339° |
| 2026-05-04 20:38 | -29.96329 | 171.99721 | 33292 ft | 478 kts | 339° |
| 2026-05-04 20:38 | -29.89940 | 171.97547 | 33283 ft | 478 kts | 339° |
| 2026-05-04 20:39 | -29.83551 | 171.95377 | 33279 ft | 479 kts | 339° |
| 2026-05-04 20:39 | -29.77155 | 171.93205 | 33289 ft | 481 kts | 339° |
| 2026-05-04 20:40 | -29.70722 | 171.91025 | 33285 ft | 481 kts | 339° |
| 2026-05-04 20:40 | -29.64287 | 171.88848 | 33279 ft | 481 kts | 339° |
| 2026-05-04 20:41 | -29.57893 | 171.86688 | 33280 ft | 481 kts | 339° |
| 2026-05-04 20:41 | -29.51430 | 171.84509 | 33277 ft | 484 kts | 338° |
| 2026-05-04 20:42 | -29.44993 | 171.82337 | 33279 ft | 485 kts | 338° |
| 2026-05-04 20:42 | -29.38482 | 171.80145 | 33272 ft | 485 kts | 338° |
| 2026-05-04 20:43 | -29.32039 | 171.77979 | 33275 ft | 485 kts | 338° |
| 2026-05-04 20:43 | -29.25527 | 171.75793 | 33266 ft | 486 kts | 338° |
| 2026-05-04 20:44 | -29.19037 | 171.73614 | 33265 ft | 490 kts | 338° |
| 2026-05-04 20:44 | -29.12464 | 171.71415 | 33265 ft | 490 kts | 338° |
| 2026-05-04 20:45 | -29.05948 | 171.69238 | 33263 ft | 490 kts | 338° |
| 2026-05-04 20:45 | -28.99377 | 171.67045 | 33263 ft | 490 kts | 338° |
| 2026-05-04 20:46 | -28.92799 | 171.64851 | 33250 ft | 494 kts | 336° |
| 2026-05-04 20:46 | -28.86207 | 171.62652 | 33255 ft | 498 kts | 336° |
| 2026-05-04 20:47 | -28.79528 | 171.60432 | 33251 ft | 498 kts | 336° |
| 2026-05-04 20:47 | -28.72895 | 171.58231 | 33250 ft | 498 kts | 336° |
| 2026-05-04 20:48 | -28.66243 | 171.56026 | 33247 ft | 498 kts | 336° |
| 2026-05-04 20:48 | -28.59597 | 171.53823 | 33247 ft | 499 kts | 336° |
| 2026-05-04 20:49 | -28.52907 | 171.51610 | 33245 ft | 499 kts | 336° |
| 2026-05-04 20:49 | -28.46263 | 171.49416 | 33242 ft | 499 kts | 336° |
| 2026-05-04 20:50 | -28.39573 | 171.47208 | 33212 ft | 499 kts | 336° |
| 2026-05-04 20:50 | -28.32925 | 171.45018 | 33233 ft | 499 kts | 336° |
| 2026-05-04 20:51 | -28.26236 | 171.42816 | 33236 ft | 500 kts | 336° |
| 2026-05-04 20:51 | -28.19561 | 171.40623 | 33236 ft | 500 kts | 336° |
| 2026-05-04 20:52 | -28.12900 | 171.38436 | 33228 ft | 500 kts | 336° |
| 2026-05-04 20:52 | -28.06204 | 171.36242 | 33226 ft | 500 kts | 336° |
| 2026-05-04 20:53 | -28.00635 | 171.34418 | 33227 ft | 500 kts | 336° |
| 2026-05-04 20:53 | -27.93914 | 171.32221 | 33226 ft | 500 kts | 336° |
| 2026-05-04 20:54 | -27.87272 | 171.30052 | 33220 ft | 500 kts | 336° |
| 2026-05-04 20:54 | -27.80566 | 171.27864 | 33210 ft | 500 kts | 336° |
| 2026-05-04 20:55 | -27.73903 | 171.25694 | 33213 ft | 502 kts | 336° |
| 2026-05-04 20:55 | -27.67175 | 171.23504 | 33213 ft | 502 kts | 336° |
| 2026-05-04 20:56 | -27.60479 | 171.21329 | 33217 ft | 502 kts | 336° |
| 2026-05-04 20:56 | -27.53765 | 171.19151 | 33211 ft | 502 kts | 336° |
| 2026-05-04 20:57 | -27.47031 | 171.16969 | 33211 ft | 502 kts | 336° |
| 2026-05-04 20:57 | -27.40294 | 171.14788 | 33206 ft | 502 kts | 336° |
| 2026-05-04 20:58 | -27.33605 | 171.12626 | 33206 ft | 502 kts | 336° |
| 2026-05-04 20:58 | -27.26878 | 171.10454 | 33202 ft | 502 kts | 336° |
| 2026-05-04 20:59 | -27.20177 | 171.08293 | 33203 ft | 502 kts | 336° |
| 2026-05-04 20:59 | -27.13437 | 171.06122 | 33195 ft | 503 kts | 336° |
| 2026-05-04 21:00 | -27.06728 | 171.03963 | 33195 ft | 504 kts | 336° |
| 2026-05-04 21:00 | -26.99963 | 171.01791 | 33194 ft | 504 kts | 336° |
| 2026-05-04 21:01 | -26.93254 | 170.99639 | 33189 ft | 504 kts | 336° |
| 2026-05-04 21:01 | -26.86480 | 170.97468 | 33172 ft | 504 kts | 336° |
| 2026-05-04 21:02 | -26.79730 | 170.95307 | 33186 ft | 505 kts | 336° |
| 2026-05-04 21:02 | -26.72994 | 170.93154 | 33189 ft | 505 kts | 336° |
| 2026-05-04 21:03 | -26.66245 | 170.91000 | 33175 ft | 505 kts | 336° |
| 2026-05-04 21:03 | -26.59474 | 170.88841 | 33182 ft | 504 kts | 336° |
| 2026-05-04 21:04 | -26.52748 | 170.86700 | 33170 ft | 504 kts | 336° |
| 2026-05-04 21:04 | -26.45977 | 170.84546 | 33170 ft | 504 kts | 336° |
| 2026-05-04 21:05 | -26.39262 | 170.82413 | 33168 ft | 504 kts | 336° |
| 2026-05-04 21:05 | -26.32494 | 170.80265 | 33165 ft | 504 kts | 336° |
| 2026-05-04 21:06 | -26.25772 | 170.78135 | 33153 ft | 504 kts | 336° |
| 2026-05-04 21:06 | -26.19009 | 170.75994 | 33158 ft | 504 kts | 336° |
| 2026-05-04 21:07 | -26.12282 | 170.73867 | 33159 ft | 504 kts | 336° |
| 2026-05-04 21:07 | -26.05516 | 170.71730 | 33157 ft | 504 kts | 336° |
| 2026-05-04 21:08 | -25.98770 | 170.69603 | 33157 ft | 504 kts | 336° |
| 2026-05-04 21:08 | -25.92003 | 170.67471 | 33149 ft | 505 kts | 336° |
| 2026-05-04 21:09 | -25.85266 | 170.65350 | 33151 ft | 505 kts | 337° |
| 2026-05-04 21:09 | -25.78489 | 170.63221 | 33146 ft | 505 kts | 337° |
| 2026-05-04 21:10 | -25.71846 | 170.60887 | 33159 ft | 494 kts | 327° |
| 2026-05-04 21:10 | -25.65868 | 170.57243 | 33140 ft | 486 kts | 320° |
| 2026-05-04 21:11 | -25.60175 | 170.53280 | 33123 ft | 485 kts | 319° |
| 2026-05-04 21:11 | -25.54420 | 170.49329 | 33139 ft | 486 kts | 320° |
| 2026-05-04 21:12 | -25.48651 | 170.45475 | 33139 ft | 486 kts | 321° |
| 2026-05-04 21:12 | -25.42824 | 170.41628 | 33129 ft | 486 kts | 321° |
| 2026-05-04 21:13 | -25.37027 | 170.37809 | 33132 ft | 486 kts | 321° |
| 2026-05-04 21:13 | -25.31211 | 170.33977 | 33121 ft | 486 kts | 321° |
| 2026-05-04 21:14 | -25.25406 | 170.30155 | 33126 ft | 486 kts | 321° |
| 2026-05-04 21:14 | -25.19612 | 170.26342 | 33123 ft | 486 kts | 321° |
| 2026-05-04 21:15 | -25.13804 | 170.22526 | 33125 ft | 486 kts | 321° |
| 2026-05-04 21:15 | -25.07969 | 170.18696 | 33125 ft | 486 kts | 321° |
| 2026-05-04 21:16 | -25.02184 | 170.14903 | 33109 ft | 486 kts | 320° |
| 2026-05-04 21:16 | -24.96379 | 170.11104 | 33111 ft | 484 kts | 320° |
| 2026-05-04 21:17 | -24.90611 | 170.07330 | 33124 ft | 484 kts | 320° |
| 2026-05-04 21:17 | -24.84810 | 170.03538 | 33107 ft | 484 kts | 320° |
| 2026-05-04 21:18 | -24.79009 | 169.99751 | 33113 ft | 484 kts | 320° |
| 2026-05-04 21:18 | -24.73213 | 169.95971 | 33112 ft | 484 kts | 320° |
| 2026-05-04 21:19 | -24.67439 | 169.92210 | 33097 ft | 484 kts | 320° |
| 2026-05-04 21:19 | -24.61668 | 169.88456 | 33108 ft | 483 kts | 320° |
| 2026-05-04 21:20 | -24.55864 | 169.84684 | 33102 ft | 483 kts | 320° |
| 2026-05-04 21:20 | -24.50055 | 169.80913 | 33106 ft | 483 kts | 320° |
| 2026-05-04 21:21 | -24.44284 | 169.77171 | 33097 ft | 482 kts | 320° |
| 2026-05-04 21:21 | -24.38534 | 169.73448 | 33097 ft | 481 kts | 320° |
| 2026-05-04 21:22 | -24.32765 | 169.69713 | 33097 ft | 481 kts | 320° |
| 2026-05-04 21:22 | -24.26992 | 169.65980 | 33093 ft | 481 kts | 320° |
| 2026-05-04 21:23 | -24.21259 | 169.62278 | 33093 ft | 481 kts | 320° |
| 2026-05-04 21:23 | -24.15483 | 169.58553 | 33094 ft | 481 kts | 320° |
| 2026-05-04 21:24 | -24.09703 | 169.54828 | 33092 ft | 481 kts | 320° |
| 2026-05-04 21:24 | -24.03963 | 169.51133 | 33091 ft | 481 kts | 320° |
| 2026-05-04 21:25 | -23.98214 | 169.47436 | 33086 ft | 481 kts | 320° |
| 2026-05-04 21:25 | -23.92416 | 169.43712 | 33089 ft | 481 kts | 320° |
| 2026-05-04 21:26 | -23.86652 | 169.40014 | 33082 ft | 480 kts | 320° |
| 2026-05-04 21:26 | -23.80890 | 169.36322 | 33084 ft | 479 kts | 320° |
| 2026-05-04 21:27 | -23.75159 | 169.32652 | 33083 ft | 479 kts | 320° |
| 2026-05-04 21:27 | -23.69427 | 169.28984 | 33060 ft | 479 kts | 320° |
| 2026-05-04 21:28 | -23.63643 | 169.25288 | 33080 ft | 480 kts | 321° |
| 2026-05-04 21:28 | -23.57910 | 169.21628 | 33076 ft | 480 kts | 321° |
| 2026-05-04 21:29 | -23.52129 | 169.17942 | 33080 ft | 480 kts | 321° |
| 2026-05-04 21:29 | -23.46348 | 169.14260 | 33077 ft | 480 kts | 321° |
| 2026-05-04 21:30 | -23.40612 | 169.10610 | 33073 ft | 480 kts | 321° |
| 2026-05-04 21:30 | -23.34834 | 169.06936 | 33070 ft | 480 kts | 321° |
| 2026-05-04 21:31 | -23.26172 | 169.01436 | 33069 ft | 481 kts | 321° |
| 2026-05-04 21:32 | -23.20402 | 168.97777 | 33067 ft | 481 kts | 321° |
| 2026-05-04 21:32 | -23.14608 | 168.94107 | 33067 ft | 481 kts | 321° |
| 2026-05-04 21:33 | -23.08846 | 168.90461 | 33065 ft | 481 kts | 321° |
| 2026-05-04 21:33 | -23.03069 | 168.86809 | 33048 ft | 481 kts | 321° |
| 2026-05-04 21:34 | -22.97278 | 168.83151 | 33063 ft | 481 kts | 321° |
| 2026-05-04 21:34 | -22.91528 | 168.79523 | 33064 ft | 481 kts | 321° |
| 2026-05-04 21:35 | -22.85726 | 168.75866 | 33062 ft | 481 kts | 321° |
| 2026-05-04 21:35 | -22.79953 | 168.72231 | 33058 ft | 481 kts | 321° |
| 2026-05-04 21:36 | -22.74152 | 168.68582 | 33046 ft | 481 kts | 322° |
| 2026-05-04 21:36 | -22.68399 | 168.64967 | 33055 ft | 479 kts | 322° |
| 2026-05-04 21:37 | -22.62615 | 168.61336 | 33056 ft | 479 kts | 322° |
| 2026-05-04 21:37 | -22.56879 | 168.57738 | 33056 ft | 479 kts | 322° |
| 2026-05-04 21:38 | -22.51095 | 168.54113 | 33051 ft | 479 kts | 322° |
| 2026-05-04 21:38 | -22.45345 | 168.50514 | 33050 ft | 479 kts | 322° |
| 2026-05-04 21:39 | -22.40534 | 168.47504 | 33048 ft | 479 kts | 322° |
| 2026-05-04 21:39 | -22.34760 | 168.43896 | 33046 ft | 479 kts | 322° |
| 2026-05-04 21:40 | -22.29020 | 168.40313 | 33048 ft | 478 kts | 322° |
| 2026-05-04 21:40 | -22.23238 | 168.36708 | 33048 ft | 479 kts | 322° |
| 2026-05-04 21:41 | -22.17459 | 168.33106 | 33048 ft | 479 kts | 322° |
| 2026-05-04 21:41 | -22.11723 | 168.29536 | 33042 ft | 478 kts | 322° |
| 2026-05-04 21:42 | -22.05955 | 168.25949 | 33045 ft | 478 kts | 322° |
| 2026-05-04 21:42 | -22.00186 | 168.22365 | 33034 ft | 478 kts | 323° |
| 2026-05-04 21:43 | -21.94453 | 168.18807 | 33044 ft | 477 kts | 323° |
| 2026-05-04 21:43 | -21.88684 | 168.15230 | 33041 ft | 478 kts | 323° |
| 2026-05-04 21:44 | -21.82942 | 168.11672 | 33041 ft | 477 kts | 323° |
| 2026-05-04 21:44 | -21.77178 | 168.08104 | 33044 ft | 477 kts | 323° |
| 2026-05-04 21:45 | -21.71405 | 168.04534 | 33042 ft | 477 kts | 323° |
| 2026-05-04 21:45 | -21.65671 | 168.00992 | 33040 ft | 478 kts | 323° |
| 2026-05-04 21:46 | -21.59918 | 167.97441 | 33036 ft | 478 kts | 323° |
| 2026-05-04 21:46 | -21.54168 | 167.93895 | 33033 ft | 478 kts | 323° |
| 2026-05-04 21:47 | -21.48404 | 167.90344 | 33031 ft | 477 kts | 323° |
| 2026-05-04 21:47 | -21.42636 | 167.86794 | 33032 ft | 477 kts | 323° |
| 2026-05-04 21:48 | -21.36905 | 167.83270 | 33029 ft | 477 kts | 323° |
| 2026-05-04 21:48 | -21.31140 | 167.79727 | 33032 ft | 477 kts | 323° |
| 2026-05-04 21:49 | -21.25356 | 167.76175 | 33032 ft | 478 kts | 323° |
| 2026-05-04 21:49 | -21.19592 | 167.72641 | 33032 ft | 478 kts | 323° |
| 2026-05-04 21:50 | -21.13835 | 167.69114 | 33031 ft | 478 kts | 323° |
| 2026-05-04 21:50 | -21.08046 | 167.65570 | 33032 ft | 478 kts | 323° |
| 2026-05-04 21:51 | -21.02263 | 167.62033 | 33031 ft | 478 kts | 323° |
| 2026-05-04 21:51 | -20.96481 | 167.58500 | 33025 ft | 478 kts | 324° |
| 2026-05-04 21:52 | -20.90728 | 167.54988 | 33035 ft | 478 kts | 324° |
| 2026-05-04 21:52 | -20.84926 | 167.51449 | 33024 ft | 478 kts | 324° |
| 2026-05-04 21:53 | -20.79174 | 167.47943 | 33019 ft | 478 kts | 324° |
| 2026-05-04 21:53 | -20.73387 | 167.44419 | 33032 ft | 478 kts | 324° |
| 2026-05-04 21:54 | -20.67584 | 167.40889 | 33019 ft | 478 kts | 324° |
| 2026-05-04 21:54 | -20.61826 | 167.37390 | 33024 ft | 479 kts | 324° |
| 2026-05-04 21:55 | -20.56014 | 167.33860 | 33017 ft | 479 kts | 324° |
| 2026-05-04 21:55 | -20.50254 | 167.30366 | 33013 ft | 479 kts | 324° |
| 2026-05-04 21:56 | -20.44447 | 167.26846 | 33017 ft | 479 kts | 324° |
| 2026-05-04 21:56 | -20.38673 | 167.23349 | 33020 ft | 479 kts | 324° |
| 2026-05-04 21:57 | -20.32867 | 167.19836 | 32995 ft | 479 kts | 324° |
| 2026-05-04 21:57 | -20.27067 | 167.16328 | 33016 ft | 479 kts | 324° |
| 2026-05-04 21:58 | -20.21287 | 167.12836 | 33012 ft | 480 kts | 324° |
| 2026-05-04 21:58 | -20.15464 | 167.09322 | 33013 ft | 480 kts | 324° |
| 2026-05-04 21:59 | -20.09682 | 167.05836 | 33007 ft | 480 kts | 324° |
| 2026-05-04 21:59 | -20.03891 | 167.02347 | 33005 ft | 480 kts | 324° |
| 2026-05-04 22:00 | -19.98207 | 166.98643 | 32993 ft | 474 kts | 318° |
| 2026-05-04 22:00 | -19.93010 | 166.94404 | 33010 ft | 472 kts | 315° |
| 2026-05-04 22:01 | -19.87857 | 166.90007 | 33008 ft | 473 kts | 315° |
| 2026-05-04 22:01 | -19.82723 | 166.85684 | 33002 ft | 473 kts | 316° |
| 2026-05-04 22:02 | -19.77527 | 166.81369 | 33007 ft | 473 kts | 316° |
| 2026-05-04 22:02 | -19.72359 | 166.77099 | 33006 ft | 473 kts | 316° |
| 2026-05-04 22:03 | -19.67161 | 166.72808 | 33003 ft | 473 kts | 316° |
| 2026-05-04 22:03 | -19.61956 | 166.68513 | 33000 ft | 473 kts | 316° |
| 2026-05-04 22:04 | -19.56789 | 166.64250 | 33004 ft | 473 kts | 316° |
| 2026-05-04 22:04 | -19.51574 | 166.59952 | 33000 ft | 473 kts | 316° |
| 2026-05-04 22:05 | -19.46369 | 166.55665 | 32999 ft | 473 kts | 316° |
| 2026-05-04 22:05 | -19.41182 | 166.51397 | 32997 ft | 473 kts | 316° |
| 2026-05-04 22:06 | -19.35990 | 166.47129 | 32997 ft | 474 kts | 316° |
| 2026-05-04 22:06 | -19.30768 | 166.42839 | 32997 ft | 474 kts | 317° |
| 2026-05-04 22:07 | -19.25580 | 166.38581 | 32990 ft | 474 kts | 317° |
| 2026-05-04 22:07 | -19.20343 | 166.34286 | 32993 ft | 475 kts | 317° |
| 2026-05-04 22:08 | -19.15141 | 166.30024 | 32991 ft | 475 kts | 317° |
| 2026-05-04 22:08 | -19.09904 | 166.25736 | 32988 ft | 475 kts | 317° |
| 2026-05-04 22:09 | -19.04673 | 166.21457 | 32988 ft | 475 kts | 317° |
| 2026-05-04 22:09 | -18.99465 | 166.17201 | 32988 ft | 475 kts | 317° |
| 2026-05-04 22:10 | -18.94224 | 166.12920 | 32987 ft | 475 kts | 317° |
| 2026-05-04 22:10 | -18.88983 | 166.08642 | 32991 ft | 476 kts | 317° |
| 2026-05-04 22:11 | -18.83769 | 166.04391 | 32989 ft | 476 kts | 317° |
| 2026-05-04 22:11 | -18.78504 | 166.00101 | 32989 ft | 476 kts | 317° |
| 2026-05-04 22:12 | -18.73276 | 165.95846 | 32990 ft | 476 kts | 317° |
| 2026-05-04 22:12 | -18.68039 | 165.91586 | 32983 ft | 476 kts | 317° |
| 2026-05-04 22:13 | -18.62787 | 165.87317 | 32979 ft | 476 kts | 317° |
| 2026-05-04 22:13 | -18.57529 | 165.83047 | 32961 ft | 476 kts | 317° |
| 2026-05-04 22:14 | -18.52301 | 165.78805 | 32978 ft | 476 kts | 317° |
| 2026-05-04 22:14 | -18.47070 | 165.74564 | 32978 ft | 475 kts | 317° |
| 2026-05-04 22:15 | -18.41820 | 165.70310 | 32977 ft | 475 kts | 317° |
| 2026-05-04 22:15 | -18.36569 | 165.66059 | 32976 ft | 475 kts | 317° |
| 2026-05-04 22:16 | -18.31367 | 165.61850 | 32979 ft | 475 kts | 317° |
| 2026-05-04 22:16 | -18.26108 | 165.57600 | 32977 ft | 475 kts | 317° |
| 2026-05-04 22:17 | -18.20890 | 165.53385 | 32971 ft | 474 kts | 317° |
| 2026-05-04 22:17 | -18.15647 | 165.49155 | 32976 ft | 474 kts | 317° |
| 2026-05-04 22:18 | -18.10442 | 165.44957 | 32973 ft | 474 kts | 317° |
| 2026-05-04 22:18 | -18.05200 | 165.40734 | 32974 ft | 474 kts | 317° |
| 2026-05-04 22:19 | -17.99959 | 165.36513 | 32974 ft | 474 kts | 317° |
| 2026-05-04 22:19 | -17.94735 | 165.32310 | 32971 ft | 474 kts | 317° |
| 2026-05-04 22:20 | -17.89486 | 165.28090 | 32971 ft | 474 kts | 317° |
| 2026-05-04 22:20 | -17.84268 | 165.23899 | 32966 ft | 474 kts | 317° |
| 2026-05-04 22:21 | -17.79022 | 165.19688 | 32969 ft | 474 kts | 317° |
| 2026-05-04 22:21 | -17.73805 | 165.15503 | 32969 ft | 474 kts | 317° |
| 2026-05-04 22:22 | -17.68547 | 165.11289 | 32970 ft | 474 kts | 317° |
| 2026-05-04 22:22 | -17.64187 | 165.07797 | 32976 ft | 474 kts | 317° |
| 2026-05-04 22:23 | -17.58076 | 165.02907 | 32965 ft | 474 kts | 317° |
| 2026-05-04 22:23 | -17.53712 | 164.99416 | 32966 ft | 474 kts | 317° |
| 2026-05-04 22:24 | -17.48451 | 164.95211 | 32969 ft | 474 kts | 317° |
| 2026-05-04 22:24 | -17.43221 | 164.91035 | 32967 ft | 474 kts | 317° |
| 2026-05-04 22:25 | -17.37966 | 164.86842 | 32960 ft | 474 kts | 317° |
| 2026-05-04 22:25 | -17.32751 | 164.82683 | 32964 ft | 474 kts | 317° |
| 2026-05-04 22:26 | -17.27487 | 164.78488 | 32968 ft | 474 kts | 317° |
| 2026-05-04 22:26 | -17.22237 | 164.74308 | 32966 ft | 474 kts | 318° |
| 2026-05-04 22:27 | -17.17007 | 164.70147 | 32961 ft | 474 kts | 318° |
| 2026-05-04 22:27 | -17.11760 | 164.65975 | 32961 ft | 474 kts | 318° |
| 2026-05-04 22:28 | -17.06513 | 164.61806 | 32961 ft | 474 kts | 318° |
| 2026-05-04 22:28 | -17.01249 | 164.57627 | 32961 ft | 474 kts | 318° |
| 2026-05-04 22:29 | -16.95980 | 164.53447 | 32958 ft | 474 kts | 318° |
| 2026-05-04 22:29 | -16.90750 | 164.49301 | 32961 ft | 474 kts | 318° |
| 2026-05-04 22:30 | -16.85480 | 164.45126 | 32954 ft | 474 kts | 318° |
| 2026-05-04 22:30 | -16.80242 | 164.40979 | 32958 ft | 474 kts | 318° |
| 2026-05-04 22:31 | -16.74956 | 164.36798 | 32959 ft | 474 kts | 318° |
| 2026-05-04 22:31 | -16.69720 | 164.32658 | 32955 ft | 474 kts | 318° |
| 2026-05-04 22:32 | -16.64458 | 164.28502 | 32957 ft | 474 kts | 318° |
| 2026-05-04 22:32 | -16.59224 | 164.24370 | 32955 ft | 474 kts | 318° |
| 2026-05-04 22:33 | -16.53949 | 164.20209 | 32950 ft | 474 kts | 318° |
| 2026-05-04 22:33 | -16.48704 | 164.16074 | 32952 ft | 473 kts | 318° |
| 2026-05-04 22:34 | -16.43465 | 164.11947 | 32952 ft | 473 kts | 318° |
| 2026-05-04 22:34 | -16.38220 | 164.07818 | 32952 ft | 473 kts | 318° |
| 2026-05-04 22:35 | -16.32945 | 164.03669 | 32949 ft | 473 kts | 318° |
| 2026-05-04 22:35 | -16.27701 | 163.99546 | 32947 ft | 473 kts | 319° |
| 2026-05-04 22:36 | -16.22441 | 163.95415 | 32945 ft | 472 kts | 319° |
| 2026-05-04 22:36 | -16.17183 | 163.91287 | 32949 ft | 472 kts | 319° |
| 2026-05-04 22:37 | -16.11942 | 163.87175 | 32946 ft | 472 kts | 319° |
| 2026-05-04 22:37 | -16.06714 | 163.83076 | 32942 ft | 472 kts | 319° |
| 2026-05-04 22:38 | -16.01480 | 163.78976 | 32947 ft | 472 kts | 319° |
| 2026-05-04 22:38 | -15.96228 | 163.74864 | 32946 ft | 472 kts | 319° |
| 2026-05-04 22:39 | -15.90963 | 163.70745 | 32947 ft | 472 kts | 319° |
| 2026-05-04 22:39 | -15.85741 | 163.66662 | 32947 ft | 472 kts | 319° |
| 2026-05-04 22:40 | -15.80484 | 163.62554 | 32944 ft | 472 kts | 319° |
| 2026-05-04 22:40 | -15.75229 | 163.58451 | 32944 ft | 472 kts | 319° |
| 2026-05-04 22:41 | -15.70008 | 163.54377 | 32940 ft | 472 kts | 319° |
| 2026-05-04 22:41 | -15.64742 | 163.50271 | 32941 ft | 472 kts | 319° |
| 2026-05-04 22:42 | -15.59484 | 163.46173 | 32940 ft | 472 kts | 319° |
| 2026-05-04 22:42 | -15.54245 | 163.42094 | 32942 ft | 472 kts | 319° |
| 2026-05-04 22:43 | -15.49016 | 163.38024 | 32938 ft | 472 kts | 319° |
| 2026-05-04 22:43 | -15.43734 | 163.33916 | 32940 ft | 472 kts | 319° |
| 2026-05-04 22:44 | -15.38514 | 163.29858 | 32937 ft | 472 kts | 319° |
| 2026-05-04 22:44 | -15.33247 | 163.25768 | 32935 ft | 472 kts | 319° |
| 2026-05-04 22:45 | -15.27984 | 163.21682 | 32939 ft | 472 kts | 319° |
| 2026-05-04 22:45 | -15.20118 | 163.15581 | 32935 ft | 472 kts | 319° |
| 2026-05-04 22:46 | -15.14859 | 163.11505 | 32937 ft | 472 kts | 319° |
| 2026-05-04 22:46 | -15.09620 | 163.07448 | 32940 ft | 472 kts | 319° |
| 2026-05-04 22:47 | -15.04379 | 163.03392 | 32937 ft | 472 kts | 319° |
| 2026-05-04 22:47 | -14.99105 | 162.99312 | 32939 ft | 471 kts | 319° |
| 2026-05-04 22:48 | -14.93951 | 162.95173 | 32938 ft | 471 kts | 318° |
| 2026-05-04 22:48 | -14.88805 | 162.90942 | 32934 ft | 471 kts | 318° |
| 2026-05-04 22:49 | -14.83685 | 162.86753 | 32941 ft | 471 kts | 318° |
| 2026-05-04 22:49 | -14.78524 | 162.82559 | 32937 ft | 471 kts | 318° |
| 2026-05-04 22:50 | -14.73379 | 162.78389 | 32938 ft | 471 kts | 318° |
| 2026-05-04 22:50 | -14.68205 | 162.74199 | 32935 ft | 471 kts | 318° |
| 2026-05-04 22:51 | -14.63073 | 162.70043 | 32935 ft | 471 kts | 318° |
| 2026-05-04 22:51 | -14.57907 | 162.65863 | 32934 ft | 471 kts | 318° |
| 2026-05-04 22:52 | -14.52727 | 162.61673 | 32936 ft | 472 kts | 318° |
| 2026-05-04 22:52 | -14.47576 | 162.57509 | 32933 ft | 472 kts | 319° |
| 2026-05-04 22:53 | -14.42403 | 162.53330 | 32937 ft | 471 kts | 319° |
| 2026-05-04 22:53 | -14.37261 | 162.49179 | 32935 ft | 471 kts | 319° |
| 2026-05-04 22:54 | -14.32082 | 162.45001 | 32940 ft | 471 kts | 319° |
| 2026-05-04 22:54 | -14.26907 | 162.40828 | 32938 ft | 471 kts | 319° |
| 2026-05-04 22:55 | -14.21764 | 162.36683 | 32940 ft | 472 kts | 319° |
| 2026-05-04 22:55 | -14.16572 | 162.32501 | 32923 ft | 472 kts | 319° |
| 2026-05-04 22:56 | -14.11419 | 162.28354 | 32938 ft | 472 kts | 319° |
| 2026-05-04 22:56 | -14.06247 | 162.24194 | 32933 ft | 472 kts | 319° |
| 2026-05-04 22:57 | -14.01125 | 162.20015 | 32933 ft | 470 kts | 315° |
| 2026-05-04 22:57 | -13.96498 | 162.15262 | 32933 ft | 468 kts | 310° |
| 2026-05-04 22:58 | -13.92039 | 162.10376 | 32933 ft | 467 kts | 309° |
| 2026-05-04 22:58 | -13.87621 | 162.05462 | 32933 ft | 467 kts | 309° |
| 2026-05-04 22:59 | -13.83230 | 162.00581 | 32932 ft | 467 kts | 309° |
| 2026-05-04 22:59 | -13.78792 | 161.95660 | 32933 ft | 467 kts | 310° |
| 2026-05-04 23:00 | -13.74360 | 161.90756 | 32936 ft | 467 kts | 310° |
| 2026-05-04 23:00 | -13.69941 | 161.85869 | 32936 ft | 467 kts | 310° |
| 2026-05-04 23:01 | -13.65529 | 161.80993 | 32933 ft | 467 kts | 310° |
| 2026-05-04 23:01 | -13.61091 | 161.76091 | 32933 ft | 467 kts | 310° |
| 2026-05-04 23:02 | -13.56670 | 161.71210 | 32933 ft | 467 kts | 310° |
| 2026-05-04 23:02 | -13.52236 | 161.66318 | 32933 ft | 467 kts | 310° |
| 2026-05-04 23:03 | -13.47809 | 161.61436 | 32931 ft | 467 kts | 310° |
| 2026-05-04 23:03 | -13.43368 | 161.56541 | 32932 ft | 467 kts | 310° |
| 2026-05-04 23:04 | -13.38934 | 161.51658 | 32933 ft | 467 kts | 310° |
| 2026-05-04 23:04 | -13.34504 | 161.46782 | 32930 ft | 467 kts | 310° |
| 2026-05-04 23:05 | -13.30087 | 161.41922 | 32927 ft | 467 kts | 310° |
| 2026-05-04 23:05 | -13.25639 | 161.37032 | 32928 ft | 467 kts | 310° |
| 2026-05-04 23:06 | -13.21947 | 161.32974 | 32930 ft | 467 kts | 310° |
| 2026-05-04 23:06 | -13.17531 | 161.28124 | 32931 ft | 467 kts | 310° |
| 2026-05-04 23:07 | -13.13075 | 161.23232 | 32927 ft | 467 kts | 310° |
| 2026-05-04 23:07 | -13.08647 | 161.18374 | 32928 ft | 468 kts | 310° |
| 2026-05-04 23:08 | -13.04191 | 161.13488 | 32928 ft | 468 kts | 310° |
| 2026-05-04 23:08 | -12.99747 | 161.08618 | 32928 ft | 468 kts | 310° |
| 2026-05-04 23:09 | -12.95306 | 161.03754 | 32927 ft | 468 kts | 310° |
| 2026-05-04 23:09 | -12.90847 | 160.98873 | 32928 ft | 468 kts | 310° |
| 2026-05-04 23:10 | -12.86389 | 160.93995 | 32928 ft | 468 kts | 310° |
| 2026-05-04 23:10 | -12.81947 | 160.89139 | 32927 ft | 468 kts | 310° |
| 2026-05-04 23:11 | -12.77511 | 160.84291 | 32925 ft | 468 kts | 311° |
| 2026-05-04 23:11 | -12.73038 | 160.79406 | 32925 ft | 469 kts | 311° |
| 2026-05-04 23:12 | -12.68590 | 160.74550 | 32927 ft | 469 kts | 311° |
| 2026-05-04 23:12 | -12.64120 | 160.69673 | 32928 ft | 469 kts | 311° |
| 2026-05-04 23:13 | -12.59673 | 160.64824 | 32925 ft | 468 kts | 311° |
| 2026-05-04 23:13 | -12.55193 | 160.59942 | 32925 ft | 468 kts | 311° |
| 2026-05-04 23:14 | -12.50744 | 160.55096 | 32925 ft | 468 kts | 311° |
| 2026-05-04 23:14 | -12.46273 | 160.50228 | 32925 ft | 468 kts | 311° |
| 2026-05-04 23:15 | -12.41828 | 160.45392 | 32928 ft | 468 kts | 311° |
| 2026-05-04 23:15 | -12.37375 | 160.40549 | 32928 ft | 468 kts | 311° |
| 2026-05-04 23:16 | -12.32893 | 160.35678 | 32925 ft | 468 kts | 311° |
| 2026-05-04 23:16 | -12.28442 | 160.30843 | 32923 ft | 468 kts | 311° |
| 2026-05-04 23:17 | -12.23958 | 160.25974 | 32923 ft | 468 kts | 311° |
| 2026-05-04 23:17 | -12.19517 | 160.21155 | 32922 ft | 468 kts | 311° |
| 2026-05-04 23:18 | -12.15041 | 160.16301 | 32921 ft | 468 kts | 311° |
| 2026-05-04 23:18 | -12.10567 | 160.11451 | 32922 ft | 468 kts | 311° |
| 2026-05-04 23:19 | -12.06119 | 160.06631 | 32922 ft | 468 kts | 311° |
| 2026-05-04 23:19 | -12.01643 | 160.01785 | 32919 ft | 468 kts | 311° |
| 2026-05-04 23:20 | -11.97165 | 159.97002 | 32917 ft | 468 kts | 313° |
| 2026-05-04 23:20 | -11.92540 | 159.92296 | 32919 ft | 468 kts | 313° |
| 2026-05-04 23:21 | -11.87933 | 159.87638 | 32918 ft | 468 kts | 313° |
| 2026-05-04 23:21 | -11.83312 | 159.82935 | 32919 ft | 468 kts | 313° |
| 2026-05-04 23:22 | -11.78693 | 159.78218 | 32920 ft | 468 kts | 313° |
| 2026-05-04 23:22 | -11.74106 | 159.73531 | 32919 ft | 468 kts | 313° |
| 2026-05-04 23:23 | -11.69495 | 159.68823 | 32920 ft | 468 kts | 313° |
| 2026-05-04 23:23 | -11.64873 | 159.64107 | 32919 ft | 468 kts | 313° |
| 2026-05-04 23:24 | -11.60283 | 159.59426 | 32918 ft | 468 kts | 313° |
| 2026-05-04 23:24 | -11.55687 | 159.54742 | 32917 ft | 468 kts | 313° |
| 2026-05-04 23:25 | -11.51085 | 159.50054 | 32919 ft | 468 kts | 313° |
| 2026-05-04 23:25 | -11.46452 | 159.45336 | 32919 ft | 469 kts | 313° |
| 2026-05-04 23:26 | -11.41857 | 159.40659 | 32917 ft | 469 kts | 313° |
| 2026-05-04 23:26 | -11.37252 | 159.35975 | 32917 ft | 469 kts | 313° |
| 2026-05-04 23:27 | -11.32621 | 159.31267 | 32920 ft | 469 kts | 313° |
| 2026-05-04 23:27 | -11.28024 | 159.26594 | 32918 ft | 469 kts | 313° |
| 2026-05-04 23:28 | -11.23390 | 159.21887 | 32917 ft | 469 kts | 313° |
| 2026-05-04 23:28 | -11.18782 | 159.17209 | 32917 ft | 469 kts | 313° |
| 2026-05-04 23:29 | -11.14139 | 159.12497 | 32917 ft | 470 kts | 313° |
| 2026-05-04 23:29 | -11.09532 | 159.07824 | 32917 ft | 470 kts | 313° |
| 2026-05-04 23:30 | -11.04893 | 159.03121 | 32919 ft | 470 kts | 313° |
| 2026-05-04 23:30 | -11.00288 | 158.98454 | 32919 ft | 470 kts | 313° |
| 2026-05-04 23:31 | -10.95646 | 158.93753 | 32914 ft | 469 kts | 313° |
| 2026-05-04 23:31 | -10.91008 | 158.89057 | 32914 ft | 469 kts | 313° |
| 2026-05-04 23:32 | -10.86378 | 158.84372 | 32917 ft | 468 kts | 313° |
| 2026-05-04 23:32 | -10.81760 | 158.79701 | 32914 ft | 468 kts | 313° |
| 2026-05-04 23:33 | -10.77150 | 158.75040 | 32916 ft | 468 kts | 313° |
| 2026-05-04 23:33 | -10.72525 | 158.70366 | 32917 ft | 468 kts | 313° |
| 2026-05-04 23:34 | -10.67888 | 158.65682 | 32914 ft | 468 kts | 313° |
| 2026-05-04 23:34 | -10.63284 | 158.61033 | 32914 ft | 468 kts | 313° |
| 2026-05-04 23:35 | -10.58679 | 158.56387 | 32914 ft | 468 kts | 313° |
| 2026-05-04 23:35 | -10.54046 | 158.51713 | 32918 ft | 468 kts | 313° |
| 2026-05-04 23:36 | -10.49411 | 158.47039 | 32913 ft | 469 kts | 313° |
| 2026-05-04 23:36 | -10.44791 | 158.42383 | 32913 ft | 469 kts | 313° |
| 2026-05-04 23:37 | -10.40166 | 158.37724 | 32913 ft | 469 kts | 313° |
| 2026-05-04 23:37 | -10.35517 | 158.33043 | 32914 ft | 469 kts | 313° |
| 2026-05-04 23:38 | -10.30902 | 158.28399 | 32915 ft | 469 kts | 313° |
| 2026-05-04 23:38 | -10.26247 | 158.23715 | 32914 ft | 469 kts | 313° |
| 2026-05-04 23:39 | -10.21625 | 158.19067 | 32911 ft | 469 kts | 313° |
| 2026-05-04 23:39 | -10.16978 | 158.14396 | 32913 ft | 470 kts | 313° |
| 2026-05-04 23:40 | -10.12320 | 158.09715 | 32914 ft | 470 kts | 313° |
| 2026-05-04 23:40 | -10.07693 | 158.05069 | 32914 ft | 470 kts | 313° |
| 2026-05-04 23:41 | -10.03036 | 158.00394 | 32911 ft | 470 kts | 313° |
| 2026-05-04 23:41 | -9.98387 | 157.95729 | 32911 ft | 470 kts | 313° |
| 2026-05-04 23:42 | -9.93749 | 157.91077 | 32914 ft | 470 kts | 314° |
| 2026-05-04 23:42 | -9.89125 | 157.86441 | 32915 ft | 470 kts | 314° |
| 2026-05-04 23:43 | -9.84461 | 157.81767 | 32914 ft | 470 kts | 314° |
| 2026-05-04 23:43 | -9.79835 | 157.77133 | 32911 ft | 470 kts | 314° |
| 2026-05-04 23:44 | -9.75172 | 157.72463 | 32912 ft | 471 kts | 314° |
| 2026-05-04 23:44 | -9.70527 | 157.67814 | 32911 ft | 471 kts | 314° |
| 2026-05-04 23:45 | -9.65853 | 157.63137 | 32914 ft | 471 kts | 314° |
| 2026-05-04 23:45 | -9.61172 | 157.58457 | 32914 ft | 471 kts | 314° |
| 2026-05-04 23:46 | -9.56531 | 157.53817 | 32911 ft | 471 kts | 314° |
| 2026-05-04 23:46 | -9.51857 | 157.49147 | 32914 ft | 471 kts | 314° |
| 2026-05-04 23:47 | -9.47207 | 157.44501 | 32911 ft | 471 kts | 314° |
| 2026-05-04 23:47 | -9.42536 | 157.39837 | 32914 ft | 471 kts | 314° |
| 2026-05-04 23:48 | -9.37882 | 157.35192 | 32914 ft | 471 kts | 314° |
| 2026-05-04 23:48 | -9.33201 | 157.30522 | 32911 ft | 471 kts | 314° |
| 2026-05-04 23:49 | -9.28555 | 157.25889 | 32913 ft | 471 kts | 314° |
| 2026-05-04 23:49 | -9.23868 | 157.21216 | 32913 ft | 471 kts | 314° |
| 2026-05-04 23:50 | -9.19209 | 157.16574 | 32915 ft | 471 kts | 314° |
| 2026-05-04 23:50 | -9.14565 | 157.11948 | 32914 ft | 470 kts | 314° |
| 2026-05-04 23:51 | -9.09893 | 157.07296 | 32912 ft | 470 kts | 314° |
| 2026-05-04 23:51 | -9.05243 | 157.02668 | 32911 ft | 470 kts | 314° |
| 2026-05-04 23:52 | -9.00582 | 156.98030 | 32914 ft | 470 kts | 314° |
| 2026-05-04 23:52 | -8.96686 | 156.94155 | 32914 ft | 470 kts | 314° |
| 2026-05-04 23:53 | -8.92029 | 156.89525 | 32914 ft | 470 kts | 314° |
| 2026-05-04 23:53 | -8.87358 | 156.84883 | 32914 ft | 470 kts | 314° |
| 2026-05-04 23:54 | -8.82690 | 156.80245 | 32911 ft | 470 kts | 315° |
| 2026-05-04 23:54 | -8.78047 | 156.75634 | 32912 ft | 470 kts | 315° |
| 2026-05-04 23:55 | -8.73361 | 156.70981 | 32914 ft | 470 kts | 315° |
| 2026-05-04 23:56 | -8.66381 | 156.64056 | 32910 ft | 469 kts | 315° |
| 2026-05-04 23:56 | -8.61712 | 156.59425 | 32912 ft | 469 kts | 315° |
| 2026-05-04 23:57 | -8.57068 | 156.54821 | 32912 ft | 469 kts | 315° |
| 2026-05-04 23:57 | -8.52433 | 156.50227 | 32911 ft | 469 kts | 315° |
| 2026-05-04 23:58 | -8.47770 | 156.45607 | 32912 ft | 468 kts | 315° |
| 2026-05-04 23:58 | -8.43130 | 156.41011 | 32912 ft | 468 kts | 315° |
| 2026-05-04 23:59 | -8.38478 | 156.36405 | 32911 ft | 468 kts | 315° |
| 2026-05-04 23:59 | -8.33806 | 156.31781 | 32911 ft | 468 kts | 315° |
| 2026-05-05 00:00 | -8.29176 | 156.27200 | 32911 ft | 468 kts | 315° |
| 2026-05-05 00:00 | -8.24515 | 156.22590 | 32913 ft | 467 kts | 315° |
| 2026-05-05 00:01 | -8.19887 | 156.18015 | 32914 ft | 468 kts | 315° |
| 2026-05-05 00:01 | -8.15227 | 156.13409 | 32911 ft | 468 kts | 315° |
| 2026-05-05 00:02 | -8.10592 | 156.08830 | 32911 ft | 468 kts | 315° |
| 2026-05-05 00:02 | -8.05921 | 156.04216 | 32911 ft | 467 kts | 315° |
| 2026-05-05 00:03 | -8.01286 | 155.99640 | 32909 ft | 468 kts | 315° |
| 2026-05-05 00:03 | -7.96645 | 155.95060 | 32909 ft | 467 kts | 315° |
| 2026-05-05 00:04 | -7.91972 | 155.90449 | 32910 ft | 468 kts | 315° |
| 2026-05-05 00:04 | -7.87330 | 155.85870 | 32909 ft | 469 kts | 315° |
| 2026-05-05 00:05 | -7.82678 | 155.81284 | 32911 ft | 468 kts | 315° |
| 2026-05-05 00:05 | -7.78010 | 155.76683 | 32912 ft | 468 kts | 315° |
| 2026-05-05 00:06 | -7.73336 | 155.72077 | 32910 ft | 469 kts | 315° |
| 2026-05-05 00:06 | -7.68699 | 155.67509 | 32909 ft | 468 kts | 315° |
| 2026-05-05 00:07 | -7.64032 | 155.62914 | 32908 ft | 468 kts | 315° |
| 2026-05-05 00:07 | -7.59391 | 155.58345 | 32908 ft | 468 kts | 316° |
| 2026-05-05 00:08 | -7.54724 | 155.53752 | 32909 ft | 468 kts | 316° |
| 2026-05-05 00:08 | -7.50058 | 155.49163 | 32909 ft | 468 kts | 316° |
| 2026-05-05 00:09 | -7.45423 | 155.44605 | 32905 ft | 468 kts | 316° |
| 2026-05-05 00:09 | -7.40741 | 155.40001 | 32906 ft | 468 kts | 316° |
| 2026-05-05 00:10 | -7.36097 | 155.35437 | 32908 ft | 468 kts | 316° |
| 2026-05-05 00:10 | -7.31429 | 155.30850 | 32908 ft | 468 kts | 316° |
| 2026-05-05 00:11 | -7.26791 | 155.26295 | 32910 ft | 468 kts | 316° |
| 2026-05-05 00:11 | -7.22143 | 155.21731 | 32908 ft | 468 kts | 316° |
| 2026-05-05 00:12 | -7.17490 | 155.17164 | 32908 ft | 468 kts | 316° |
| 2026-05-05 00:12 | -7.12819 | 155.12580 | 32906 ft | 468 kts | 316° |
| 2026-05-05 00:13 | -7.08144 | 155.07993 | 32906 ft | 468 kts | 316° |
| 2026-05-05 00:13 | -7.03508 | 155.03447 | 32906 ft | 468 kts | 316° |
| 2026-05-05 00:14 | -6.98920 | 154.98785 | 32912 ft | 468 kts | 311° |
| 2026-05-05 00:14 | -6.94808 | 154.93707 | 32909 ft | 468 kts | 308° |
| 2026-05-05 00:15 | -6.90838 | 154.88522 | 32903 ft | 468 kts | 308° |
| 2026-05-05 00:15 | -6.86831 | 154.83358 | 32907 ft | 468 kts | 308° |
| 2026-05-05 00:16 | -6.82778 | 154.78215 | 32903 ft | 468 kts | 309° |
| 2026-05-05 00:16 | -6.78739 | 154.73116 | 32902 ft | 467 kts | 309° |
| 2026-05-05 00:17 | -6.74693 | 154.68010 | 32904 ft | 467 kts | 309° |
| 2026-05-05 00:17 | -6.70623 | 154.62872 | 32908 ft | 467 kts | 309° |
| 2026-05-05 00:18 | -6.66573 | 154.57759 | 32892 ft | 467 kts | 309° |
| 2026-05-05 00:18 | -6.62536 | 154.52664 | 32909 ft | 467 kts | 309° |
| 2026-05-05 00:19 | -6.58476 | 154.47540 | 32890 ft | 467 kts | 309° |
| 2026-05-05 00:19 | -6.54433 | 154.42441 | 32903 ft | 467 kts | 309° |
| 2026-05-05 00:20 | -6.50368 | 154.37315 | 32905 ft | 467 kts | 309° |
| 2026-05-05 00:20 | -6.46313 | 154.32203 | 32904 ft | 467 kts | 309° |
| 2026-05-05 00:21 | -6.42280 | 154.27119 | 32902 ft | 467 kts | 309° |
| 2026-05-05 00:21 | -6.38209 | 154.21990 | 32900 ft | 467 kts | 309° |
| 2026-05-05 00:22 | -6.34178 | 154.16914 | 32888 ft | 467 kts | 309° |
| 2026-05-05 00:22 | -6.30110 | 154.11791 | 32904 ft | 467 kts | 309° |
| 2026-05-05 00:23 | -6.26077 | 154.06713 | 32903 ft | 467 kts | 309° |
| 2026-05-05 00:23 | -6.22017 | 154.01604 | 32887 ft | 467 kts | 309° |
| 2026-05-05 00:24 | -6.17975 | 153.96517 | 32903 ft | 467 kts | 309° |
| 2026-05-05 00:24 | -6.13903 | 153.91396 | 32902 ft | 467 kts | 309° |
| 2026-05-05 00:25 | -6.09854 | 153.86304 | 32888 ft | 468 kts | 309° |
| 2026-05-05 00:25 | -6.05803 | 153.81212 | 32907 ft | 468 kts | 309° |
| 2026-05-05 00:26 | -6.01725 | 153.76086 | 32905 ft | 468 kts | 309° |
| 2026-05-05 00:26 | -5.97675 | 153.70997 | 32905 ft | 468 kts | 309° |
| 2026-05-05 00:27 | -5.93597 | 153.65874 | 32907 ft | 468 kts | 309° |
| 2026-05-05 00:27 | -5.89549 | 153.60791 | 32887 ft | 468 kts | 309° |
| 2026-05-05 00:28 | -5.85490 | 153.55695 | 32908 ft | 468 kts | 309° |
| 2026-05-05 00:28 | -5.81413 | 153.50577 | 32911 ft | 468 kts | 309° |
| 2026-05-05 00:29 | -5.77364 | 153.45496 | 32890 ft | 468 kts | 309° |
| 2026-05-05 00:29 | -5.73282 | 153.40376 | 32895 ft | 468 kts | 309° |
| 2026-05-05 00:30 | -5.69231 | 153.35295 | 32912 ft | 468 kts | 309° |
| 2026-05-05 00:30 | -5.65153 | 153.30180 | 32893 ft | 468 kts | 309° |
| 2026-05-05 00:31 | -5.61077 | 153.25071 | 32892 ft | 468 kts | 309° |
| 2026-05-05 00:31 | -5.57018 | 153.19983 | 32910 ft | 468 kts | 309° |
| 2026-05-05 00:32 | -5.52935 | 153.14868 | 32908 ft | 468 kts | 309° |
| 2026-05-05 00:32 | -5.48883 | 153.09791 | 32893 ft | 467 kts | 309° |
| 2026-05-05 00:33 | -5.44809 | 153.04689 | 32892 ft | 466 kts | 309° |
| 2026-05-05 00:33 | -5.40766 | 152.99627 | 32916 ft | 466 kts | 309° |
| 2026-05-05 00:34 | -5.36697 | 152.94534 | 32894 ft | 465 kts | 309° |
| 2026-05-05 00:34 | -5.32667 | 152.89491 | 32893 ft | 465 kts | 309° |
| 2026-05-05 00:35 | -5.28629 | 152.84438 | 32914 ft | 465 kts | 309° |
| 2026-05-05 00:35 | -5.24562 | 152.79352 | 32896 ft | 465 kts | 309° |
| 2026-05-05 00:36 | -5.20525 | 152.74303 | 32898 ft | 465 kts | 309° |
| 2026-05-05 00:36 | -5.16455 | 152.69214 | 32917 ft | 466 kts | 310° |
| 2026-05-05 00:37 | -5.12425 | 152.64176 | 32902 ft | 466 kts | 310° |
| 2026-05-05 00:37 | -5.09036 | 152.59940 | 32918 ft | 466 kts | 309° |
| 2026-05-05 00:38 | -5.04309 | 152.54035 | 32916 ft | 466 kts | 309° |